Time;durP1;ratioP1;P1;durP2;ratioP2;P2;SDS_P1;SDS_P2;PMS_P1;PMS_P2;Temp;Humidity;BMP_temperature;BMP_pressure;BME280_temperature;BME280_humidity;BME280_pressure;Samples;Min_cycle;Max_cycle;Signal;HPM_P1;HPM_P2
2021/12/08 04:53:36;;;;;;;43.15;21.65;;;;;;;1.40;67.79;100024.28;5584005;31;33067;-57
2021/12/08 05:04:10;;;;;;;42.55;21.40;;;;;;;1.04;68.14;100038.44;5588552;31;33631;-57
2021/12/08 05:10:14;;;;;;;39.15;21.67;;;;;;;1.16;67.51;100044.56;5588762;31;34293;-57
2021/12/08 05:13:18;;;;;;;41.50;22.17;;;;;;;0.97;68.00;100038.53;5599075;31;33594;-57
2021/12/08 05:16:23;;;;;;;43.20;21.35;;;;;;;0.87;68.02;100027.72;5601579;31;33670;-57
2021/12/08 05:19:28;;;;;;;40.28;22.08;;;;;;;0.83;68.51;100024.75;5603074;31;34349;-57
2021/12/08 05:22:38;;;;;;;41.05;21.98;;;;;;;1.11;67.25;100026.75;5599664;31;33138;-57
2021/12/08 05:25:42;;;;;;;35.67;20.92;;;;;;;1.06;66.93;100033.72;5583671;31;33867;-57
2021/12/08 05:28:48;;;;;;;40.22;21.25;;;;;;;0.95;67.71;100022.12;5583268;31;34225;-57
2021/12/08 05:31:51;;;;;;;39.50;23.12;;;;;;;1.04;67.47;100031.31;5581721;31;34502;-57
2021/12/08 05:34:54;;;;;;;39.28;21.90;;;;;;;0.81;72.04;100039.97;5597103;31;34164;-57
2021/12/08 05:37:57;;;;;;;37.38;21.37;;;;;;;0.77;76.07;100036.19;5595481;31;33658;-57
2021/12/08 05:41:14;;;;;;;38.47;21.05;;;;;;;0.99;68.65;100023.28;5584733;31;33735;-57
2021/12/08 05:44:18;;;;;;;40.17;22.05;;;;;;;1.05;66.82;100013.66;5602970;31;32229;-57
2021/12/08 05:47:25;;;;;;;42.47;22.17;;;;;;;0.95;67.34;100011.56;5602686;31;33649;-57
2021/12/08 05:50:33;;;;;;;44.00;24.08;;;;;;;1.20;65.45;100016.69;5599042;31;33672;-57
2021/12/08 05:53:38;;;;;;;38.42;22.13;;;;;;;0.98;71.65;100024.31;5563496;32;33690;-57
2021/12/08 05:56:41;;;;;;;41.30;21.92;;;;;;;1.09;71.05;100020.09;5564699;31;34066;-57
2021/12/08 05:59:46;;;;;;;40.00;22.15;;;;;;;1.16;66.36;100018.16;5579748;31;33124;-57
2021/12/08 06:02:49;;;;;;;40.63;21.90;;;;;;;1.08;66.05;100029.84;5564000;31;34006;-57
2021/12/08 06:05:55;;;;;;;45.05;23.27;;;;;;;0.96;75.02;100029.03;5550371;32;33598;-57
2021/12/08 06:08:57;;;;;;;35.25;21.62;;;;;;;0.88;66.81;100038.03;5551306;32;33634;-57
2021/12/08 06:12:00;;;;;;;42.33;21.95;;;;;;;0.98;66.75;100044.63;5559403;31;34352;-57
2021/12/08 06:15:04;;;;;;;36.97;19.92;;;;;;;1.06;69.00;100039.00;5566953;32;33613;-57
2021/12/08 06:18:06;;;;;;;39.85;21.08;;;;;;;1.03;66.46;100037.66;5569675;32;33619;-57
2021/12/08 06:21:13;;;;;;;35.67;20.55;;;;;;;0.93;66.05;100032.91;5569670;31;32298;-57
2021/12/08 06:24:17;;;;;;;37.85;21.95;;;;;;;1.04;68.33;100039.25;5572153;31;33853;-57
2021/12/08 06:27:19;;;;;;;36.50;21.48;;;;;;;0.89;70.64;100041.50;5569649;31;33737;-57
2021/12/08 06:30:27;;;;;;;38.88;20.75;;;;;;;0.87;72.44;100036.44;5569151;32;34213;-57
2021/12/08 06:33:31;;;;;;;39.63;22.30;;;;;;;0.88;66.78;100040.69;5569616;31;33791;-57
2021/12/08 06:36:44;;;;;;;40.17;21.45;;;;;;;0.91;67.58;100048.16;5568681;32;34285;-57
2021/12/08 06:39:58;;;;;;;40.38;20.92;;;;;;;1.08;65.62;100044.88;5557378;31;33551;-57
2021/12/08 06:43:05;;;;;;;33.72;20.65;;;;;;;1.11;65.26;100050.50;5569564;31;34278;-57
2021/12/08 06:46:07;;;;;;;;;;;;;;;0.91;66.00;100047.34;5574728;31;33781;-56
2021/12/08 06:49:13;;;;;;;38.50;20.85;;;;;;;0.96;65.62;100055.41;5569131;32;34014;-57
2021/12/08 06:52:20;;;;;;;38.85;21.65;;;;;;;0.85;68.71;100046.41;5569506;32;34726;-57
2021/12/08 06:55:28;;;;;;;35.35;20.55;;;;;;;0.99;65.79;100048.88;5569303;32;34409;-57
2021/12/08 06:58:34;;;;;;;41.45;22.17;;;;;;;1.01;65.02;100052.91;5568807;32;33697;-57
2021/12/08 07:04:56;;;;;;;40.10;22.30;;;;;;;1.05;66.06;100043.50;5569520;32;33835;-57
2021/12/08 07:08:06;;;;;;;38.97;21.00;;;;;;;0.80;67.98;100035.75;5558371;32;33539;-56
2021/12/08 07:11:11;;;;;;;41.35;20.80;;;;;;;0.98;66.07;100034.06;5579453;31;33737;-57
2021/12/08 07:14:14;;;;;;;42.35;22.30;;;;;;;0.94;67.97;100044.28;5582195;31;33872;-57
2021/12/08 07:17:25;;;;;;;38.40;22.10;;;;;;;1.00;66.21;100034.66;5568748;32;33693;-56
2021/12/08 07:20:45;;;;;;;38.47;21.67;;;;;;;0.93;67.61;100032.91;5569394;31;33571;-57
2021/12/08 07:24:00;;;;;;;40.80;22.77;;;;;;;0.88;73.66;100038.03;5568682;32;33608;-57
2021/12/08 07:27:11;;;;;;;41.97;23.90;;;;;;;0.91;66.40;100036.81;5569143;31;33565;-57
2021/12/08 07:30:19;;;;;;;39.17;22.05;;;;;;;0.94;66.79;100039.00;5561353;31;34365;-57
2021/12/08 07:33:22;;;;;;;45.20;23.12;;;;;;;1.03;66.49;100037.66;5568510;31;34416;-57
2021/12/08 07:36:24;;;;;;;39.42;22.80;;;;;;;0.98;66.39;100034.06;5567472;32;33538;-57
2021/12/08 07:39:32;;;;;;;42.22;23.67;;;;;;;1.09;67.41;100034.09;5568709;31;33726;-57
2021/12/08 07:42:40;;;;;;;40.92;22.70;;;;;;;1.11;66.76;100037.31;5567507;32;33732;-57
2021/12/08 07:46:06;;;;;;;40.97;23.10;;;;;;;1.19;70.20;100038.81;5575592;31;34378;-57
2021/12/08 07:49:14;;;;;;;41.45;24.75;;;;;;;1.36;68.26;100041.63;5573440;31;33600;-57
2021/12/08 07:52:35;;;;;;;40.53;23.98;;;;;;;1.51;66.65;100046.44;5567917;32;34297;-57
2021/12/08 07:55:41;;;;;;;40.22;25.12;;;;;;;1.50;66.19;100045.66;5574342;31;34189;-57
2021/12/08 07:58:50;;;;;;;48.55;25.85;;;;;;;1.68;65.77;100051.84;5568788;32;34337;-57
2021/12/08 08:01:58;;;;;;;51.90;26.50;;;;;;;1.91;65.66;100043.13;5568337;32;33660;-57
2021/12/08 08:05:04;;;;;;;46.40;25.80;;;;;;;1.75;65.98;100050.69;5573577;31;33155;-57
2021/12/08 08:08:10;;;;;;;44.40;26.55;;;;;;;1.87;65.99;100056.00;5579054;31;33757;-57
2021/12/08 08:11:31;;;;;;;50.92;25.85;;;;;;;2.01;66.05;100059.19;5568634;32;33576;-57
2021/12/08 08:14:41;;;;;;;48.87;26.80;;;;;;;1.85;68.61;100053.59;5568305;31;33813;-57
2021/12/08 08:17:46;;;;;;;44.50;25.88;;;;;;;2.08;66.03;100057.25;5568535;32;34259;-57
2021/12/08 08:20:51;;;;;;;47.60;26.42;;;;;;;2.16;65.51;100056.91;5568288;32;33920;-57
2021/12/08 08:23:55;;;;;;;46.47;26.50;;;;;;;2.06;66.93;100051.41;5566567;32;33586;-58
2021/12/08 08:27:01;;;;;;;45.28;25.27;;;;;;;2.32;66.03;100055.38;5567460;31;34386;-57
2021/12/08 08:30:08;;;;;;;55.45;28.65;;;;;;;2.49;65.96;100056.25;5561178;32;34415;-57
2021/12/08 08:33:12;;;;;;;49.50;26.10;;;;;;;2.66;65.32;100058.97;5566707;32;33704;-57
2021/12/08 08:36:20;;;;;;;48.15;26.55;;;;;;;2.67;65.50;100055.25;5567454;31;34224;-57
2021/12/08 08:39:28;;;;;;;46.97;26.40;;;;;;;2.73;65.58;100064.09;5567366;32;34209;-57
2021/12/08 08:42:37;;;;;;;42.08;26.10;;;;;;;2.83;65.33;100059.81;5567845;32;33678;-57
2021/12/08 08:45:54;;;;;;;47.83;26.30;;;;;;;2.83;65.28;100064.28;5568014;31;33645;-57
2021/12/08 08:49:00;;;;;;;47.28;28.12;;;;;;;3.12;64.60;100070.38;5567156;32;33890;-57
2021/12/08 08:52:22;;;;;;;45.70;29.05;;;;;;;2.87;65.35;100064.63;5562713;31;33673;-57
2021/12/08 08:55:30;;;;;;;45.05;27.27;;;;;;;2.91;65.72;100065.75;5585931;31;34262;-58
2021/12/08 08:58:35;;;;;;;46.45;27.83;;;;;;;2.93;65.73;100061.03;5567239;32;33533;-57
2021/12/08 09:01:43;;;;;;;44.03;27.27;;;;;;;3.13;65.43;100065.88;5567402;32;33638;-57
2021/12/08 09:04:54;;;;;;;49.05;29.73;;;;;;;3.06;71.31;100064.19;5566448;31;33167;-57
2021/12/08 09:07:58;;;;;;;46.17;27.52;;;;;;;3.06;66.07;100060.75;5567300;32;34336;-57
2021/12/08 09:11:15;;;;;;;49.70;29.42;;;;;;;3.21;65.54;100053.06;5567496;32;34904;-57
2021/12/08 09:14:31;;;;;;;44.80;27.62;;;;;;;3.30;65.19;100048.16;5566308;31;34411;-58
2021/12/08 09:17:41;;;;;;;49.53;29.00;;;;;;;3.24;66.33;100046.47;5566691;31;33704;-57
2021/12/08 09:20:57;;;;;;;48.40;29.80;;;;;;;3.16;66.49;100045.03;5570410;31;34388;-57
2021/12/08 09:24:10;;;;;;;45.97;28.77;;;;;;;3.27;65.25;100044.13;5562306;31;33952;-57
2021/12/08 09:27:19;;;;;;;48.75;29.52;;;;;;;3.37;73.44;100038.22;5561441;31;33824;-57
2021/12/08 09:30:44;;;;;;;52.95;30.20;;;;;;;3.62;67.52;100039.66;5554183;32;33653;-57
2021/12/08 09:33:58;;;;;;;51.47;28.70;;;;;;;3.58;71.72;100031.41;5565756;31;34220;-57
2021/12/08 09:37:07;;;;;;;50.58;28.67;;;;;;;3.96;65.55;100012.03;5568506;31;33243;-57
2021/12/08 09:40:15;;;;;;;53.15;31.08;;;;;;;3.90;65.69;100020.97;5569407;32;34281;-57
2021/12/08 09:43:26;;;;;;;56.97;31.27;;;;;;;3.85;66.56;100020.91;5570988;31;33542;-58
2021/12/08 09:46:52;;;;;;;51.25;32.30;;;;;;;3.79;65.79;100016.56;5564355;32;33647;-57
2021/12/08 09:49:57;;;;;;;53.97;30.83;;;;;;;3.80;66.68;100012.88;5582290;31;34141;-57
2021/12/08 09:53:02;;;;;;;58.15;32.70;;;;;;;3.90;65.22;100006.91;5559984;31;33585;-57
2021/12/08 09:56:05;;;;;;;62.20;34.28;;;;;;;3.97;75.05;99999.56;5567836;32;33786;-57
2021/12/08 09:59:09;;;;;;;54.50;34.67;;;;;;;4.07;67.60;100007.66;5549717;32;33703;-58
2021/12/08 10:02:14;;;;;;;67.20;35.03;;;;;;;4.13;64.97;100003.22;5561509;31;34089;-57
2021/12/08 10:05:17;;;;;;;78.07;37.78;;;;;;;4.02;65.40;100004.94;5565537;32;33621;-58
2021/12/08 10:08:19;;;;;;;63.45;39.53;;;;;;;4.20;64.37;100001.97;5564694;32;33264;-57
2021/12/08 10:11:21;;;;;;;62.38;38.55;;;;;;;4.39;66.12;99999.03;5564563;31;33608;-57
2021/12/08 10:14:25;;;;;;;69.00;39.78;;;;;;;4.50;74.02;100000.72;5564791;32;33845;-57
2021/12/08 10:17:27;;;;;;;63.78;38.60;;;;;;;4.48;76.89;99984.28;5570605;31;33696;-57
2021/12/08 10:20:35;;;;;;;65.43;39.85;;;;;;;4.83;79.47;99994.44;5576805;31;33444;-57
2021/12/08 10:23:40;;;;;;;67.25;36.33;;;;;;;4.90;64.52;99986.25;5575430;31;33470;-57
2021/12/08 10:26:43;;;;;;;59.95;34.95;;;;;;;4.72;67.17;99976.81;5568396;31;33640;-57
2021/12/08 10:29:45;;;;;;;60.63;36.17;;;;;;;4.88;67.58;99978.56;5558953;31;34523;-57
2021/12/08 10:32:49;;;;;;;65.78;34.95;;;;;;;4.84;64.37;99974.00;5566075;31;33624;-57
2021/12/08 10:36:02;;;;;;;58.75;34.42;;;;;;;4.66;63.84;99967.97;5563045;31;34323;-58
2021/12/08 10:39:09;;;;;;;56.10;34.10;;;;;;;4.68;66.69;99975.72;5580157;31;33753;-57
2021/12/08 10:42:23;;;;;;;60.30;34.92;;;;;;;4.63;64.10;99968.47;5573265;31;33757;-58
2021/12/08 10:45:30;;;;;;;50.08;32.63;;;;;;;4.60;63.42;99968.19;5568861;32;33619;-57
2021/12/08 10:48:37;;;;;;;58.13;33.85;;;;;;;4.53;63.94;99960.41;5569277;31;33763;-58
2021/12/08 10:55:16;;;;;;;54.03;33.55;;;;;;;4.94;65.50;99955.50;5563115;32;33392;-57
2021/12/08 10:58:24;;;;;;;58.00;34.67;;;;;;;4.91;73.58;99945.38;5565055;31;34212;-57
2021/12/08 11:01:27;;;;;;;56.67;34.70;;;;;;;4.90;64.56;99941.94;5577534;31;34461;-57
2021/12/08 11:04:32;;;;;;;60.42;34.42;;;;;;;5.51;70.73;99946.88;5569267;31;34336;-57
2021/12/08 11:07:34;;;;;;;53.17;33.75;;;;;;;5.70;66.80;99943.78;5566257;31;33775;-57
2021/12/08 11:10:52;;;;;;;53.10;33.33;;;;;;;5.37;62.74;99932.44;5564810;31;33708;-57
2021/12/08 11:13:57;;;;;;;53.20;31.87;;;;;;;5.22;62.80;99925.16;5559784;32;34347;-57
2021/12/08 11:16:59;;;;;;;56.03;34.67;;;;;;;5.59;68.72;99924.31;5562228;31;34295;-57
2021/12/08 11:20:22;;;;;;;59.35;33.80;;;;;;;5.34;68.95;99919.66;5567902;32;34292;-57
2021/12/08 11:26:50;;;;;;;55.22;33.40;;;;;;;5.21;62.81;99920.09;5570864;31;33684;-57
2021/12/08 11:29:52;;;;;;;60.85;34.42;;;;;;;5.30;70.51;99918.56;5558932;32;33659;-57
2021/12/08 11:33:18;;;;;;;53.20;33.33;;;;;;;5.17;64.85;99914.50;5564003;31;34375;-58
2021/12/08 11:36:24;;;;;;;52.22;29.40;;;;;;;5.33;70.46;99918.84;5562186;31;34301;-58
2021/12/08 11:39:38;;;;;;;50.03;31.80;;;;;;;6.13;76.75;99918.72;5567887;32;33799;-57
2021/12/08 11:42:41;;;;;;;55.00;32.97;;;;;;;5.78;61.03;99911.38;5567789;31;33577;-57
2021/12/08 11:45:43;;;;;;;46.17;29.40;;;;;;;5.41;61.96;99922.88;5568280;32;33733;-57
2021/12/08 11:49:08;;;;;;;52.28;31.20;;;;;;;5.18;61.86;99916.09;5565832;32;33408;-57
2021/12/08 11:52:15;;;;;;;55.30;33.20;;;;;;;5.38;79.71;99915.41;5559371;32;33709;-58
2021/12/08 11:55:20;;;;;;;57.53;33.38;;;;;;;5.42;63.01;99914.63;5558806;31;33865;-58
2021/12/08 11:58:23;;;;;;;60.72;36.33;;;;;;;5.29;64.96;99903.66;5557595;31;33738;-58
2021/12/08 12:01:25;;;;;;;59.60;33.78;;;;;;;5.38;69.28;99905.59;5561924;31;33679;-57
2021/12/08 12:04:28;;;;;;;58.85;34.17;;;;;;;5.79;68.82;99905.78;5564824;32;33722;-58
2021/12/08 12:07:30;;;;;;;52.97;31.87;;;;;;;5.81;63.50;99905.53;5563750;31;33670;-57
2021/12/08 12:10:35;;;;;;;61.78;35.50;;;;;;;5.99;72.79;99896.31;5566013;31;32147;-58
2021/12/08 12:13:38;;;;;;;67.50;38.33;;;;;;;6.49;65.40;99905.47;5562582;31;34788;-57
2021/12/08 12:16:41;;;;;;;61.08;36.15;;;;;;;6.11;61.12;99891.56;5556511;31;34416;-57
2021/12/08 12:20:02;;;;;;;55.45;34.63;;;;;;;5.99;70.63;99886.44;5557922;31;34435;-58
2021/12/08 12:23:35;;;;;;;56.13;35.00;;;;;;;5.74;61.50;99889.00;5567064;32;34015;-57
2021/12/08 12:27:08;;;;;;;59.38;35.70;;;;;;;5.77;75.40;99886.63;5567001;31;34013;-57
2021/12/08 12:30:32;;;;;;;56.70;34.60;;;;;;;5.74;62.23;99876.50;5568855;31;34324;-57
2021/12/08 12:33:43;;;;;;;55.92;34.83;;;;;;;6.09;71.89;99883.84;5566553;31;33706;-58
2021/12/08 12:36:45;;;;;;;55.38;33.50;;;;;;;5.90;68.30;99874.72;5587509;31;34345;-58
2021/12/08 12:39:51;;;;;;;61.53;32.40;;;;;;;5.83;61.47;99882.13;5566846;31;33646;-58
2021/12/08 12:42:56;;;;;;;51.50;32.45;;;;;;;5.85;61.92;99880.78;5566749;32;33646;-57
2021/12/08 12:46:09;;;;;;;54.50;33.97;;;;;;;6.11;62.91;99881.72;5566438;32;33775;-57
2021/12/08 12:49:24;;;;;;;57.47;29.02;;;;;;;5.78;70.00;99879.44;5563708;32;34291;-57
2021/12/08 12:52:41;;;;;;;43.60;27.00;;;;;;;5.78;62.24;99868.81;5566214;32;34394;-58
2021/12/08 12:55:47;;;;;;;44.42;26.80;;;;;;;6.28;68.23;99870.03;5562792;32;33871;-57
2021/12/08 12:58:54;;;;;;;41.20;25.07;;;;;;;6.54;61.46;99860.22;5565840;31;33658;-57
2021/12/08 13:02:11;;;;;;;44.13;26.15;;;;;;;6.34;63.76;99853.00;5555013;32;33590;-57
2021/12/08 13:05:18;;;;;;;44.25;26.02;;;;;;;6.36;63.74;99856.22;5563932;32;33640;-57
2021/12/08 13:08:56;;;;;;;45.03;26.95;;;;;;;6.60;61.33;99853.81;5563618;32;34432;-57
2021/12/08 13:12:26;;;;;;;45.22;24.23;;;;;;;6.17;61.13;99853.25;5566646;32;34217;-57
2021/12/08 13:15:29;;;;;;;40.45;26.77;;;;;;;6.15;60.41;99842.06;5562459;31;33999;-57
2021/12/08 13:18:32;;;;;;;39.42;25.00;;;;;;;6.20;64.88;99847.41;5569743;32;32205;-57
2021/12/08 13:21:50;;;;;;;43.83;25.33;;;;;;;6.25;70.46;99852.72;5569813;32;34530;-57
2021/12/08 13:24:52;;;;;;;40.45;25.83;;;;;;;6.15;61.73;99847.38;5568205;32;33723;-57
2021/12/08 13:28:06;;;;;;;37.40;24.48;;;;;;;5.89;61.31;99849.16;5551459;32;34619;-57
2021/12/08 13:34:33;;;;;;;39.60;24.25;;;;;;;6.25;61.94;99857.25;5550387;32;33754;-57
2021/12/08 13:37:36;;;;;;;42.08;23.77;;;;;;;6.08;72.69;99855.63;5561932;32;33660;-57
2021/12/08 13:40:49;;;;;;;39.72;24.73;;;;;;;6.13;61.65;99846.88;5562637;32;33789;-57
2021/12/08 13:43:52;;;;;;;38.15;25.05;;;;;;;6.02;61.88;99848.69;5550549;32;33834;-57
2021/12/08 13:46:56;;;;;;;39.22;24.55;;;;;;;6.10;63.06;99856.16;5569103;32;34310;-58
2021/12/08 13:50:07;;;;;;;42.90;25.75;;;;;;;5.89;61.93;99851.81;5554489;32;33619;-57
2021/12/08 13:53:15;;;;;;;44.80;26.08;;;;;;;5.88;64.46;99852.88;5551458;32;34315;-57
2021/12/08 13:56:18;;;;;;;43.95;25.77;;;;;;;5.85;62.74;99858.72;5585131;31;33631;-57
2021/12/08 13:59:56;;;;;;;44.78;26.17;;;;;;;5.84;62.24;99863.25;5561443;31;33457;-57
2021/12/08 14:03:02;;;;;;;41.80;25.30;;;;;;;5.78;63.18;99863.50;5569200;32;33590;-57
2021/12/08 14:06:07;;;;;;;41.40;25.10;;;;;;;5.70;63.47;99856.81;5569952;32;33659;-58
2021/12/08 14:09:15;;;;;;;41.13;25.20;;;;;;;5.67;63.57;99854.69;5570048;32;33649;-57
2021/12/08 14:12:18;;;;;;;41.70;26.12;;;;;;;5.59;63.21;99858.63;5559485;32;34360;-58
2021/12/08 14:15:25;;;;;;;41.10;26.95;;;;;;;5.50;64.23;99854.09;5550533;32;34255;-57
2021/12/08 14:18:32;;;;;;;42.15;25.27;;;;;;;5.60;74.96;99856.78;5553850;32;33708;-57
2021/12/08 14:21:36;;;;;;;42.10;25.05;;;;;;;5.51;66.66;99850.34;5569425;32;33722;-57
2021/12/08 14:24:58;;;;;;;43.58;25.42;;;;;;;5.54;66.46;99860.47;5568806;32;33278;-57
2021/12/08 14:28:28;;;;;;;43.55;26.45;;;;;;;5.54;73.44;99858.63;5568700;32;33691;-58
2021/12/08 14:31:36;;;;;;;45.60;26.48;;;;;;;5.49;66.50;99861.25;5565608;32;34366;-58
2021/12/08 14:34:39;;;;;;;43.70;28.55;;;;;;;5.47;66.81;99868.69;5572423;31;34374;-58
2021/12/08 14:37:42;;;;;;;42.92;25.67;;;;;;;5.47;64.47;99868.69;5588985;31;33110;-58
2021/12/08 14:40:44;;;;;;;44.33;25.40;;;;;;;5.55;63.24;99860.22;5579102;31;33786;-57
2021/12/08 14:43:49;;;;;;;45.65;28.02;;;;;;;5.45;64.73;99860.16;5568272;31;33689;-58
2021/12/08 14:46:58;;;;;;;49.97;27.77;;;;;;;5.38;64.25;99868.38;5568779;32;34660;-58
2021/12/08 14:50:14;;;;;;;48.08;26.92;;;;;;;5.42;65.65;99868.66;5568158;32;33726;-57
2021/12/08 14:53:16;;;;;;;45.03;27.27;;;;;;;5.32;66.70;99861.41;5558224;32;34516;-58
2021/12/08 14:56:20;;;;;;;42.13;26.77;;;;;;;5.32;66.43;99863.28;5573282;31;33775;-58
2021/12/08 14:59:22;;;;;;;49.53;26.83;;;;;;;5.17;65.30;99848.06;5587569;31;34269;-58
2021/12/08 15:02:40;;;;;;;43.08;27.27;;;;;;;5.16;65.53;99843.78;5569209;32;33659;-58
2021/12/08 15:05:47;;;;;;;45.53;25.80;;;;;;;5.04;65.57;99841.34;5568784;31;33604;-58
2021/12/08 15:08:50;;;;;;;46.37;27.60;;;;;;;4.95;65.78;99845.53;5566063;32;33313;-58
2021/12/08 15:12:05;;;;;;;53.90;28.23;;;;;;;4.98;64.58;99844.22;5557703;31;33660;-57
2021/12/08 15:15:20;;;;;;;45.35;27.45;;;;;;;4.82;65.83;99836.16;5558787;32;34255;-57
2021/12/08 15:18:25;;;;;;;46.78;28.50;;;;;;;4.80;65.25;99840.94;5560393;31;33233;-58
2021/12/08 15:21:41;;;;;;;51.65;28.55;;;;;;;4.84;64.95;99849.19;5564366;31;34356;-57
2021/12/08 15:24:43;;;;;;;46.13;28.27;;;;;;;4.85;65.34;99848.13;5554411;31;33750;-58
2021/12/08 15:27:49;;;;;;;48.30;29.67;;;;;;;4.83;65.05;99853.66;5577174;31;33798;-58
2021/12/08 15:30:55;;;;;;;48.72;29.27;;;;;;;4.69;65.21;99852.50;5567205;31;33700;-58
2021/12/08 15:34:16;;;;;;;52.55;33.53;;;;;;;4.71;65.14;99850.41;5565606;32;33674;-58
2021/12/08 15:37:18;;;;;;;52.58;31.83;;;;;;;4.59;69.96;99849.78;5559178;31;33736;-58
2021/12/08 15:40:32;;;;;;;55.92;32.22;;;;;;;4.46;72.54;99853.66;5562418;31;33595;-57
2021/12/08 15:43:38;;;;;;;48.40;30.58;;;;;;;4.97;73.68;99840.78;5568390;31;33711;-58
2021/12/08 15:46:44;;;;;;;53.28;30.00;;;;;;;4.92;66.28;99840.72;5567743;31;34469;-58
2021/12/08 15:49:48;;;;;;;56.33;31.12;;;;;;;4.89;65.38;99839.38;5562591;32;33677;-58
2021/12/08 15:52:56;;;;;;;54.72;31.65;;;;;;;4.82;65.60;99833.50;5549200;32;33759;-57
2021/12/08 15:56:02;;;;;;;50.72;31.23;;;;;;;4.72;65.54;99833.41;5552331;31;33601;-58
2021/12/08 15:59:16;;;;;;;55.37;32.83;;;;;;;4.70;65.48;99840.81;5566518;32;34342;-58
2021/12/08 16:02:31;;;;;;;48.47;30.25;;;;;;;4.64;65.64;99837.34;5558259;32;34046;-58
2021/12/08 16:05:34;;;;;;;50.45;30.45;;;;;;;4.45;66.73;99844.88;5555821;32;34373;-58
2021/12/08 16:08:36;;;;;;;49.17;29.52;;;;;;;4.43;67.46;99846.19;5575176;31;33719;-58
2021/12/08 16:11:39;;;;;;;49.70;29.92;;;;;;;4.34;71.26;99845.03;5588475;31;33651;-57
2021/12/08 16:14:51;;;;;;;48.33;29.50;;;;;;;4.43;68.23;99841.69;5552294;31;33789;-58
2021/12/08 16:18:01;;;;;;;56.03;30.55;;;;;;;4.40;68.47;99831.59;5549356;32;33787;-57
2021/12/08 16:21:03;;;;;;;50.97;29.90;;;;;;;4.27;69.72;99836.50;5549461;32;34320;-58
2021/12/08 16:24:06;;;;;;;56.03;30.50;;;;;;;4.39;66.69;99845.09;5549347;32;33644;-58
2021/12/08 16:27:14;;;;;;;47.72;29.27;;;;;;;4.44;66.26;99840.66;5549373;32;33814;-57
2021/12/08 16:30:17;;;;;;;52.10;28.90;;;;;;;4.36;66.38;99842.94;5549248;32;33689;-58
2021/12/08 16:33:19;;;;;;;42.40;27.17;;;;;;;4.40;66.16;99847.53;5549241;32;33617;-58
2021/12/08 16:36:21;;;;;;;47.70;28.20;;;;;;;4.31;66.06;99859.62;5549184;32;34429;-58
2021/12/08 16:39:29;;;;;;;43.55;27.67;;;;;;;4.31;65.93;99853.53;5549161;32;33745;-58
2021/12/08 16:45:56;;;;;;;42.30;25.77;;;;;;;4.17;66.45;99861.06;5549037;32;33690;-58
2021/12/08 16:48:58;;;;;;;42.22;26.58;;;;;;;4.24;65.41;99862.50;5548120;32;33800;-58
2021/12/08 16:52:00;;;;;;;39.65;25.23;;;;;;;4.33;64.95;99869.97;5548590;32;34309;-58
2021/12/08 16:55:04;;;;;;;52.15;32.13;;;;;;;4.17;72.82;99847.81;5548979;32;34368;-58
2021/12/08 16:58:08;;;;;;;47.75;25.80;;;;;;;4.10;65.78;99858.63;5548704;32;33661;-58
